sensor_id;sensor_type;location;lat;lon;timestamp;P1;durP1;ratioP1;P2;durP2;ratioP2
21987;SDS011;11158;53.404;-1.510;2023-08-12T00:01:19;15.90;;;2.67;;
21987;SDS011;11158;53.404;-1.510;2023-08-12T00:04:05;10.88;;;3.33;;
21987;SDS011;11158;53.404;-1.510;2023-08-12T00:06:49;11.50;;;3.00;;
21987;SDS011;11158;53.404;-1.510;2023-08-12T00:09:44;12.63;;;3.05;;
21987;SDS011;11158;53.404;-1.510;2023-08-12T00:12:28;17.08;;;2.80;;
21987;SDS011;11158;53.404;-1.510;2023-08-12T00:15:13;10.18;;;2.35;;
21987;SDS011;11158;53.404;-1.510;2023-08-12T00:17:57;11.15;;;2.97;;
21987;SDS011;11158;53.404;-1.510;2023-08-12T00:20:42;11.23;;;2.53;;
21987;SDS011;11158;53.404;-1.510;2023-08-12T00:23:26;13.23;;;3.88;;
21987;SDS011;11158;53.404;-1.510;2023-08-12T00:26:10;11.90;;;3.10;;
21987;SDS011;11158;53.404;-1.510;2023-08-12T00:28:54;19.60;;;3.47;;
21987;SDS011;11158;53.404;-1.510;2023-08-12T00:31:38;11.63;;;3.45;;
21987;SDS011;11158;53.404;-1.510;2023-08-12T00:34:23;16.13;;;3.60;;
21987;SDS011;11158;53.404;-1.510;2023-08-12T00:37:07;12.80;;;2.72;;
21987;SDS011;11158;53.404;-1.510;2023-08-12T00:39:51;10.60;;;2.67;;
21987;SDS011;11158;53.404;-1.510;2023-08-12T00:42:35;9.30;;;2.85;;
21987;SDS011;11158;53.404;-1.510;2023-08-12T00:45:20;12.80;;;2.85;;
21987;SDS011;11158;53.404;-1.510;2023-08-12T00:48:04;8.25;;;2.40;;
21987;SDS011;11158;53.404;-1.510;2023-08-12T00:50:49;9.98;;;2.45;;
21987;SDS011;11158;53.404;-1.510;2023-08-12T00:53:33;13.10;;;3.08;;
21987;SDS011;11158;53.404;-1.510;2023-08-12T00:56:18;9.50;;;2.70;;
21987;SDS011;11158;53.404;-1.510;2023-08-12T00:59:03;12.95;;;2.60;;
21987;SDS011;11158;53.404;-1.510;2023-08-12T01:01:51;14.18;;;2.97;;
21987;SDS011;11158;53.404;-1.510;2023-08-12T01:04:35;12.35;;;3.25;;
21987;SDS011;11158;53.404;-1.510;2023-08-12T01:07:19;12.57;;;3.65;;
21987;SDS011;11158;53.404;-1.510;2023-08-12T01:10:03;14.95;;;3.10;;
21987;SDS011;11158;53.404;-1.510;2023-08-12T01:13:09;12.40;;;3.42;;
21987;SDS011;11158;53.404;-1.510;2023-08-12T01:16:17;12.75;;;4.00;;
21987;SDS011;11158;53.404;-1.510;2023-08-12T01:19:05;11.35;;;2.80;;
21987;SDS011;11158;53.404;-1.510;2023-08-12T01:21:53;14.38;;;3.08;;
21987;SDS011;11158;53.404;-1.510;2023-08-12T01:24:42;12.68;;;3.50;;
21987;SDS011;11158;53.404;-1.510;2023-08-12T01:27:27;10.02;;;3.05;;
21987;SDS011;11158;53.404;-1.510;2023-08-12T01:30:11;11.85;;;2.60;;
21987;SDS011;11158;53.404;-1.510;2023-08-12T01:36:00;15.18;;;3.38;;
21987;SDS011;11158;53.404;-1.510;2023-08-12T01:38:52;14.13;;;2.72;;
21987;SDS011;11158;53.404;-1.510;2023-08-12T01:41:40;12.30;;;2.70;;
21987;SDS011;11158;53.404;-1.510;2023-08-12T01:44:24;16.73;;;3.22;;
21987;SDS011;11158;53.404;-1.510;2023-08-12T01:47:09;12.50;;;2.78;;
21987;SDS011;11158;53.404;-1.510;2023-08-12T01:49:53;13.98;;;3.58;;
21987;SDS011;11158;53.404;-1.510;2023-08-12T01:52:38;12.65;;;2.78;;
21987;SDS011;11158;53.404;-1.510;2023-08-12T01:55:22;13.98;;;2.92;;
21987;SDS011;11158;53.404;-1.510;2023-08-12T01:58:06;13.75;;;2.60;;
21987;SDS011;11158;53.404;-1.510;2023-08-12T02:00:50;15.75;;;3.83;;
21987;SDS011;11158;53.404;-1.510;2023-08-12T02:03:34;15.32;;;3.05;;
21987;SDS011;11158;53.404;-1.510;2023-08-12T02:06:18;16.90;;;3.55;;
21987;SDS011;11158;53.404;-1.510;2023-08-12T02:09:03;14.27;;;4.22;;
21987;SDS011;11158;53.404;-1.510;2023-08-12T02:11:47;12.23;;;2.72;;
21987;SDS011;11158;53.404;-1.510;2023-08-12T02:14:31;11.55;;;3.30;;
21987;SDS011;11158;53.404;-1.510;2023-08-12T02:17:15;10.52;;;2.72;;
21987;SDS011;11158;53.404;-1.510;2023-08-12T02:19:59;14.77;;;3.42;;
21987;SDS011;11158;53.404;-1.510;2023-08-12T02:22:43;9.35;;;2.65;;
21987;SDS011;11158;53.404;-1.510;2023-08-12T02:25:27;9.73;;;2.83;;
21987;SDS011;11158;53.404;-1.510;2023-08-12T02:28:11;13.82;;;3.03;;
21987;SDS011;11158;53.404;-1.510;2023-08-12T02:30:55;14.13;;;3.72;;
21987;SDS011;11158;53.404;-1.510;2023-08-12T02:33:39;14.13;;;4.30;;
21987;SDS011;11158;53.404;-1.510;2023-08-12T02:36:23;14.48;;;3.08;;
21987;SDS011;11158;53.404;-1.510;2023-08-12T02:39:09;17.00;;;3.38;;
21987;SDS011;11158;53.404;-1.510;2023-08-12T02:41:53;15.95;;;3.95;;
21987;SDS011;11158;53.404;-1.510;2023-08-12T02:44:37;15.63;;;3.28;;
21987;SDS011;11158;53.404;-1.510;2023-08-12T02:47:21;11.15;;;3.40;;
21987;SDS011;11158;53.404;-1.510;2023-08-12T02:50:05;15.25;;;3.33;;
21987;SDS011;11158;53.404;-1.510;2023-08-12T02:52:50;14.75;;;3.75;;
21987;SDS011;11158;53.404;-1.510;2023-08-12T02:55:34;14.25;;;4.00;;
21987;SDS011;11158;53.404;-1.510;2023-08-12T02:58:18;14.20;;;4.25;;
21987;SDS011;11158;53.404;-1.510;2023-08-12T03:01:02;14.07;;;3.35;;
21987;SDS011;11158;53.404;-1.510;2023-08-12T03:03:47;12.25;;;3.53;;
21987;SDS011;11158;53.404;-1.510;2023-08-12T03:06:31;17.98;;;4.53;;
21987;SDS011;11158;53.404;-1.510;2023-08-12T03:09:16;10.43;;;3.70;;
21987;SDS011;11158;53.404;-1.510;2023-08-12T03:12:02;15.50;;;4.45;;
21987;SDS011;11158;53.404;-1.510;2023-08-12T03:14:47;12.32;;;4.22;;
21987;SDS011;11158;53.404;-1.510;2023-08-12T03:17:31;13.88;;;4.72;;
21987;SDS011;11158;53.404;-1.510;2023-08-12T03:20:14;10.25;;;4.40;;
21987;SDS011;11158;53.404;-1.510;2023-08-12T03:22:59;18.83;;;4.00;;
21987;SDS011;11158;53.404;-1.510;2023-08-12T03:25:43;16.98;;;5.40;;
21987;SDS011;11158;53.404;-1.510;2023-08-12T03:28:30;18.77;;;4.68;;
21987;SDS011;11158;53.404;-1.510;2023-08-12T03:31:14;17.35;;;4.80;;
21987;SDS011;11158;53.404;-1.510;2023-08-12T03:33:58;16.42;;;5.35;;
21987;SDS011;11158;53.404;-1.510;2023-08-12T03:36:42;13.23;;;3.92;;
21987;SDS011;11158;53.404;-1.510;2023-08-12T03:39:27;16.30;;;4.68;;
21987;SDS011;11158;53.404;-1.510;2023-08-12T03:42:11;14.88;;;4.13;;
21987;SDS011;11158;53.404;-1.510;2023-08-12T03:44:55;10.98;;;3.85;;
21987;SDS011;11158;53.404;-1.510;2023-08-12T03:47:39;12.77;;;3.67;;
21987;SDS011;11158;53.404;-1.510;2023-08-12T03:50:23;15.85;;;4.90;;
21987;SDS011;11158;53.404;-1.510;2023-08-12T03:53:07;12.50;;;4.32;;
21987;SDS011;11158;53.404;-1.510;2023-08-12T03:55:52;13.15;;;4.57;;
21987;SDS011;11158;53.404;-1.510;2023-08-12T03:58:36;16.17;;;4.10;;
21987;SDS011;11158;53.404;-1.510;2023-08-12T04:01:20;14.00;;;5.10;;
21987;SDS011;11158;53.404;-1.510;2023-08-12T04:04:05;13.27;;;5.00;;
21987;SDS011;11158;53.404;-1.510;2023-08-12T04:06:49;10.68;;;4.40;;
21987;SDS011;11158;53.404;-1.510;2023-08-12T04:09:37;13.88;;;4.57;;
21987;SDS011;11158;53.404;-1.510;2023-08-12T04:12:21;12.85;;;4.38;;
21987;SDS011;11158;53.404;-1.510;2023-08-12T04:15:05;12.52;;;4.38;;
21987;SDS011;11158;53.404;-1.510;2023-08-12T04:17:50;16.10;;;4.93;;
21987;SDS011;11158;53.404;-1.510;2023-08-12T04:20:36;13.35;;;4.25;;
21987;SDS011;11158;53.404;-1.510;2023-08-12T04:23:20;20.58;;;4.50;;
21987;SDS011;11158;53.404;-1.510;2023-08-12T04:26:05;12.82;;;4.13;;
21987;SDS011;11158;53.404;-1.510;2023-08-12T04:28:50;16.70;;;4.28;;
21987;SDS011;11158;53.404;-1.510;2023-08-12T04:31:35;11.95;;;4.28;;
21987;SDS011;11158;53.404;-1.510;2023-08-12T04:34:19;9.85;;;4.05;;
21987;SDS011;11158;53.404;-1.510;2023-08-12T04:37:03;14.05;;;4.90;;
21987;SDS011;11158;53.404;-1.510;2023-08-12T04:39:47;12.63;;;4.18;;
21987;SDS011;11158;53.404;-1.510;2023-08-12T04:42:31;14.80;;;4.15;;
21987;SDS011;11158;53.404;-1.510;2023-08-12T04:45:15;17.40;;;4.70;;
21987;SDS011;11158;53.404;-1.510;2023-08-12T04:47:59;11.68;;;4.53;;
21987;SDS011;11158;53.404;-1.510;2023-08-12T04:50:43;12.77;;;4.20;;
21987;SDS011;11158;53.404;-1.510;2023-08-12T04:53:28;19.38;;;4.60;;
21987;SDS011;11158;53.404;-1.510;2023-08-12T04:56:12;16.45;;;4.15;;
21987;SDS011;11158;53.404;-1.510;2023-08-12T04:58:56;14.88;;;3.90;;
21987;SDS011;11158;53.404;-1.510;2023-08-12T05:01:41;16.02;;;4.45;;
21987;SDS011;11158;53.404;-1.510;2023-08-12T05:04:25;12.73;;;4.22;;
21987;SDS011;11158;53.404;-1.510;2023-08-12T05:07:09;16.33;;;3.83;;
21987;SDS011;11158;53.404;-1.510;2023-08-12T05:09:54;13.20;;;4.65;;
21987;SDS011;11158;53.404;-1.510;2023-08-12T05:12:38;13.55;;;3.25;;
21987;SDS011;11158;53.404;-1.510;2023-08-12T05:15:22;16.55;;;3.75;;
21987;SDS011;11158;53.404;-1.510;2023-08-12T05:18:06;12.23;;;3.50;;
21987;SDS011;11158;53.404;-1.510;2023-08-12T05:20:51;11.60;;;3.60;;
21987;SDS011;11158;53.404;-1.510;2023-08-12T05:23:36;10.85;;;3.35;;
21987;SDS011;11158;53.404;-1.510;2023-08-12T05:26:20;14.10;;;3.67;;
21987;SDS011;11158;53.404;-1.510;2023-08-12T05:29:04;17.13;;;4.03;;
21987;SDS011;11158;53.404;-1.510;2023-08-12T05:31:48;21.27;;;4.03;;
21987;SDS011;11158;53.404;-1.510;2023-08-12T05:34:32;14.15;;;3.78;;
21987;SDS011;11158;53.404;-1.510;2023-08-12T05:37:16;13.57;;;3.78;;
21987;SDS011;11158;53.404;-1.510;2023-08-12T05:40:00;15.73;;;3.50;;
21987;SDS011;11158;53.404;-1.510;2023-08-12T05:42:45;16.15;;;3.47;;
21987;SDS011;11158;53.404;-1.510;2023-08-12T05:45:29;15.85;;;4.10;;
21987;SDS011;11158;53.404;-1.510;2023-08-12T05:48:14;19.10;;;3.70;;
21987;SDS011;11158;53.404;-1.510;2023-08-12T05:50:58;16.00;;;3.67;;
21987;SDS011;11158;53.404;-1.510;2023-08-12T05:53:42;12.05;;;3.65;;
21987;SDS011;11158;53.404;-1.510;2023-08-12T05:56:26;19.48;;;3.40;;
21987;SDS011;11158;53.404;-1.510;2023-08-12T05:59:10;12.57;;;3.58;;
21987;SDS011;11158;53.404;-1.510;2023-08-12T06:01:54;11.90;;;3.50;;
21987;SDS011;11158;53.404;-1.510;2023-08-12T06:04:38;9.77;;;3.20;;
21987;SDS011;11158;53.404;-1.510;2023-08-12T06:07:22;9.27;;;3.13;;
21987;SDS011;11158;53.404;-1.510;2023-08-12T06:10:06;12.02;;;2.78;;
21987;SDS011;11158;53.404;-1.510;2023-08-12T06:12:51;9.00;;;2.58;;
21987;SDS011;11158;53.404;-1.510;2023-08-12T06:15:35;11.57;;;2.80;;
21987;SDS011;11158;53.404;-1.510;2023-08-12T06:18:20;11.25;;;3.22;;
21987;SDS011;11158;53.404;-1.510;2023-08-12T06:21:04;15.93;;;4.50;;
21987;SDS011;11158;53.404;-1.510;2023-08-12T06:23:48;10.88;;;3.40;;
21987;SDS011;11158;53.404;-1.510;2023-08-12T06:26:32;17.35;;;3.60;;
21987;SDS011;11158;53.404;-1.510;2023-08-12T06:29:17;10.43;;;3.15;;
21987;SDS011;11158;53.404;-1.510;2023-08-12T06:32:01;13.65;;;3.55;;
21987;SDS011;11158;53.404;-1.510;2023-08-12T06:34:44;9.82;;;3.00;;
21987;SDS011;11158;53.404;-1.510;2023-08-12T06:37:28;9.95;;;2.85;;
21987;SDS011;11158;53.404;-1.510;2023-08-12T06:40:12;10.38;;;2.65;;
21987;SDS011;11158;53.404;-1.510;2023-08-12T06:42:57;11.38;;;3.30;;
21987;SDS011;11158;53.404;-1.510;2023-08-12T06:45:41;13.80;;;3.05;;
21987;SDS011;11158;53.404;-1.510;2023-08-12T06:48:25;10.50;;;3.15;;
21987;SDS011;11158;53.404;-1.510;2023-08-12T06:51:09;14.07;;;3.10;;
21987;SDS011;11158;53.404;-1.510;2023-08-12T06:53:56;14.90;;;2.92;;
21987;SDS011;11158;53.404;-1.510;2023-08-12T06:56:40;10.57;;;2.70;;
21987;SDS011;11158;53.404;-1.510;2023-08-12T06:59:24;10.00;;;2.97;;
21987;SDS011;11158;53.404;-1.510;2023-08-12T07:02:08;13.63;;;2.83;;
21987;SDS011;11158;53.404;-1.510;2023-08-12T07:04:52;6.55;;;2.05;;
21987;SDS011;11158;53.404;-1.510;2023-08-12T07:07:36;9.02;;;2.53;;
21987;SDS011;11158;53.404;-1.510;2023-08-12T07:10:20;10.00;;;2.03;;
21987;SDS011;11158;53.404;-1.510;2023-08-12T07:13:04;8.07;;;2.22;;
21987;SDS011;11158;53.404;-1.510;2023-08-12T07:15:49;9.65;;;1.90;;
21987;SDS011;11158;53.404;-1.510;2023-08-12T07:18:33;4.35;;;1.90;;
21987;SDS011;11158;53.404;-1.510;2023-08-12T07:21:17;7.88;;;1.95;;
21987;SDS011;11158;53.404;-1.510;2023-08-12T07:24:01;7.28;;;2.35;;
21987;SDS011;11158;53.404;-1.510;2023-08-12T07:26:45;5.10;;;1.52;;
21987;SDS011;11158;53.404;-1.510;2023-08-12T07:29:29;5.53;;;2.03;;
21987;SDS011;11158;53.404;-1.510;2023-08-12T07:32:13;6.40;;;1.70;;
21987;SDS011;11158;53.404;-1.510;2023-08-12T07:34:57;3.90;;;1.60;;
21987;SDS011;11158;53.404;-1.510;2023-08-12T07:37:41;6.20;;;1.60;;
21987;SDS011;11158;53.404;-1.510;2023-08-12T07:40:26;4.85;;;1.80;;
21987;SDS011;11158;53.404;-1.510;2023-08-12T07:43:10;5.05;;;1.45;;
21987;SDS011;11158;53.404;-1.510;2023-08-12T07:45:54;6.50;;;1.65;;
21987;SDS011;11158;53.404;-1.510;2023-08-12T07:48:38;2.38;;;1.17;;
21987;SDS011;11158;53.404;-1.510;2023-08-12T07:51:22;4.50;;;1.77;;
21987;SDS011;11158;53.404;-1.510;2023-08-12T07:54:06;3.72;;;1.40;;
21987;SDS011;11158;53.404;-1.510;2023-08-12T07:56:50;3.70;;;1.42;;
21987;SDS011;11158;53.404;-1.510;2023-08-12T07:59:36;4.88;;;1.65;;
21987;SDS011;11158;53.404;-1.510;2023-08-12T08:02:20;5.97;;;1.50;;
21987;SDS011;11158;53.404;-1.510;2023-08-12T08:05:04;4.40;;;1.67;;
21987;SDS011;11158;53.404;-1.510;2023-08-12T08:07:49;4.07;;;1.67;;
21987;SDS011;11158;53.404;-1.510;2023-08-12T08:10:33;5.40;;;1.40;;
21987;SDS011;11158;53.404;-1.510;2023-08-12T08:13:17;5.47;;;1.70;;
21987;SDS011;11158;53.404;-1.510;2023-08-12T08:16:01;6.95;;;1.58;;
21987;SDS011;11158;53.404;-1.510;2023-08-12T08:18:46;6.05;;;1.40;;
21987;SDS011;11158;53.404;-1.510;2023-08-12T08:21:30;5.03;;;1.40;;
21987;SDS011;11158;53.404;-1.510;2023-08-12T08:24:14;7.13;;;2.03;;
21987;SDS011;11158;53.404;-1.510;2023-08-12T08:26:58;6.20;;;1.77;;
21987;SDS011;11158;53.404;-1.510;2023-08-12T08:29:42;10.52;;;1.50;;
21987;SDS011;11158;53.404;-1.510;2023-08-12T08:32:26;5.60;;;1.77;;
21987;SDS011;11158;53.404;-1.510;2023-08-12T08:35:10;5.13;;;1.98;;
21987;SDS011;11158;53.404;-1.510;2023-08-12T08:37:54;8.02;;;1.90;;
21987;SDS011;11158;53.404;-1.510;2023-08-12T08:40:38;7.60;;;1.90;;
21987;SDS011;11158;53.404;-1.510;2023-08-12T08:43:22;5.20;;;2.25;;
21987;SDS011;11158;53.404;-1.510;2023-08-12T08:46:10;6.78;;;1.85;;
21987;SDS011;11158;53.404;-1.510;2023-08-12T08:48:58;11.55;;;2.90;;
21987;SDS011;11158;53.404;-1.510;2023-08-12T08:51:43;9.38;;;2.38;;
21987;SDS011;11158;53.404;-1.510;2023-08-12T08:54:30;16.00;;;2.65;;
21987;SDS011;11158;53.404;-1.510;2023-08-12T08:57:14;10.10;;;4.00;;
21987;SDS011;11158;53.404;-1.510;2023-08-12T08:59:59;6.55;;;1.98;;
21987;SDS011;11158;53.404;-1.510;2023-08-12T09:02:44;7.68;;;2.05;;
21987;SDS011;11158;53.404;-1.510;2023-08-12T09:05:30;10.32;;;1.90;;
21987;SDS011;11158;53.404;-1.510;2023-08-12T09:08:16;10.80;;;2.95;;
21987;SDS011;11158;53.404;-1.510;2023-08-12T09:11:01;6.80;;;2.25;;
21987;SDS011;11158;53.404;-1.510;2023-08-12T09:13:47;9.30;;;2.92;;
21987;SDS011;11158;53.404;-1.510;2023-08-12T09:16:32;6.72;;;2.25;;
21987;SDS011;11158;53.404;-1.510;2023-08-12T09:19:16;8.73;;;2.50;;
21987;SDS011;11158;53.404;-1.510;2023-08-12T09:22:04;9.98;;;2.00;;
21987;SDS011;11158;53.404;-1.510;2023-08-12T09:24:56;7.45;;;1.90;;
21987;SDS011;11158;53.404;-1.510;2023-08-12T09:27:41;6.78;;;2.25;;
21987;SDS011;11158;53.404;-1.510;2023-08-12T09:30:28;11.50;;;2.78;;
21987;SDS011;11158;53.404;-1.510;2023-08-12T09:33:14;8.75;;;2.72;;
21987;SDS011;11158;53.404;-1.510;2023-08-12T09:35:59;6.85;;;2.35;;
21987;SDS011;11158;53.404;-1.510;2023-08-12T09:38:43;5.88;;;2.35;;
21987;SDS011;11158;53.404;-1.510;2023-08-12T09:41:28;11.35;;;2.83;;
21987;SDS011;11158;53.404;-1.510;2023-08-12T09:44:13;11.20;;;2.55;;
21987;SDS011;11158;53.404;-1.510;2023-08-12T09:46:57;11.07;;;2.65;;
21987;SDS011;11158;53.404;-1.510;2023-08-12T09:49:42;11.80;;;2.28;;
21987;SDS011;11158;53.404;-1.510;2023-08-12T09:52:27;10.10;;;2.53;;
21987;SDS011;11158;53.404;-1.510;2023-08-12T09:55:11;7.07;;;1.90;;
21987;SDS011;11158;53.404;-1.510;2023-08-12T09:57:59;14.02;;;3.10;;
21987;SDS011;11158;53.404;-1.510;2023-08-12T10:00:43;9.77;;;2.47;;
21987;SDS011;11158;53.404;-1.510;2023-08-12T10:03:29;13.13;;;3.17;;
21987;SDS011;11158;53.404;-1.510;2023-08-12T10:06:17;7.38;;;2.63;;
21987;SDS011;11158;53.404;-1.510;2023-08-12T10:09:01;9.63;;;2.55;;
21987;SDS011;11158;53.404;-1.510;2023-08-12T10:11:46;7.43;;;2.15;;
21987;SDS011;11158;53.404;-1.510;2023-08-12T10:14:31;12.23;;;2.80;;
21987;SDS011;11158;53.404;-1.510;2023-08-12T10:17:17;7.40;;;2.45;;
21987;SDS011;11158;53.404;-1.510;2023-08-12T10:20:03;13.73;;;2.55;;
21987;SDS011;11158;53.404;-1.510;2023-08-12T10:22:48;9.18;;;2.28;;
21987;SDS011;11158;53.404;-1.510;2023-08-12T10:25:33;8.73;;;2.47;;
21987;SDS011;11158;53.404;-1.510;2023-08-12T10:28:20;10.80;;;2.85;;
21987;SDS011;11158;53.404;-1.510;2023-08-12T10:31:06;13.77;;;2.90;;
21987;SDS011;11158;53.404;-1.510;2023-08-12T10:33:51;6.57;;;2.22;;
21987;SDS011;11158;53.404;-1.510;2023-08-12T10:36:35;13.10;;;1.77;;
21987;SDS011;11158;53.404;-1.510;2023-08-12T10:39:28;10.57;;;2.30;;
21987;SDS011;11158;53.404;-1.510;2023-08-12T10:42:39;7.78;;;2.08;;
21987;SDS011;11158;53.404;-1.510;2023-08-12T10:45:43;7.90;;;2.28;;
21987;SDS011;11158;53.404;-1.510;2023-08-12T10:48:37;7.38;;;1.95;;
21987;SDS011;11158;53.404;-1.510;2023-08-12T10:54:31;8.63;;;2.20;;
21987;SDS011;11158;53.404;-1.510;2023-08-12T10:57:15;8.48;;;1.90;;
21987;SDS011;11158;53.404;-1.510;2023-08-12T11:00:00;8.57;;;1.95;;
21987;SDS011;11158;53.404;-1.510;2023-08-12T11:02:51;8.32;;;2.47;;
21987;SDS011;11158;53.404;-1.510;2023-08-12T11:05:36;9.38;;;2.47;;
21987;SDS011;11158;53.404;-1.510;2023-08-12T11:08:26;10.55;;;2.47;;
21987;SDS011;11158;53.404;-1.510;2023-08-12T11:11:21;7.28;;;1.73;;
21987;SDS011;11158;53.404;-1.510;2023-08-12T11:14:11;10.65;;;2.13;;
21987;SDS011;11158;53.404;-1.510;2023-08-12T11:16:58;6.22;;;1.83;;
21987;SDS011;11158;53.404;-1.510;2023-08-12T11:19:45;7.43;;;2.17;;
21987;SDS011;11158;53.404;-1.510;2023-08-12T11:22:32;8.57;;;2.22;;
21987;SDS011;11158;53.404;-1.510;2023-08-12T11:25:19;5.78;;;1.90;;
21987;SDS011;11158;53.404;-1.510;2023-08-12T11:28:03;10.27;;;2.22;;
21987;SDS011;11158;53.404;-1.510;2023-08-12T11:30:48;9.07;;;2.10;;
21987;SDS011;11158;53.404;-1.510;2023-08-12T11:33:33;8.18;;;1.98;;
21987;SDS011;11158;53.404;-1.510;2023-08-12T11:36:17;5.38;;;1.80;;
21987;SDS011;11158;53.404;-1.510;2023-08-12T11:39:01;8.50;;;1.85;;
21987;SDS011;11158;53.404;-1.510;2023-08-12T11:41:45;7.35;;;2.03;;
21987;SDS011;11158;53.404;-1.510;2023-08-12T11:44:29;6.93;;;1.83;;
21987;SDS011;11158;53.404;-1.510;2023-08-12T11:47:14;8.32;;;2.13;;
21987;SDS011;11158;53.404;-1.510;2023-08-12T11:49:58;5.25;;;1.50;;
21987;SDS011;11158;53.404;-1.510;2023-08-12T11:52:42;6.68;;;1.77;;
21987;SDS011;11158;53.404;-1.510;2023-08-12T11:55:28;4.18;;;1.42;;
21987;SDS011;11158;53.404;-1.510;2023-08-12T11:58:13;5.30;;;1.48;;
21987;SDS011;11158;53.404;-1.510;2023-08-12T12:01:02;4.32;;;1.30;;
21987;SDS011;11158;53.404;-1.510;2023-08-12T12:03:51;5.45;;;1.30;;
21987;SDS011;11158;53.404;-1.510;2023-08-12T12:06:54;4.22;;;1.40;;
21987;SDS011;11158;53.404;-1.510;2023-08-12T12:09:57;5.70;;;1.50;;
21987;SDS011;11158;53.404;-1.510;2023-08-12T12:13:00;3.08;;;0.93;;
21987;SDS011;11158;53.404;-1.510;2023-08-12T12:16:09;4.70;;;1.10;;
21987;SDS011;11158;53.404;-1.510;2023-08-12T12:19:15;3.97;;;1.15;;
21987;SDS011;11158;53.404;-1.510;2023-08-12T12:22:28;2.58;;;1.17;;
21987;SDS011;11158;53.404;-1.510;2023-08-12T12:25:16;4.55;;;1.20;;
21987;SDS011;11158;53.404;-1.510;2023-08-12T12:28:23;2.45;;;1.02;;
21987;SDS011;11158;53.404;-1.510;2023-08-12T12:31:08;4.68;;;0.95;;
21987;SDS011;11158;53.404;-1.510;2023-08-12T12:34:07;4.53;;;1.13;;
21987;SDS011;11158;53.404;-1.510;2023-08-12T12:37:15;3.50;;;1.10;;
21987;SDS011;11158;53.404;-1.510;2023-08-12T12:40:17;5.63;;;1.23;;
21987;SDS011;11158;53.404;-1.510;2023-08-12T12:43:16;3.17;;;0.85;;
21987;SDS011;11158;53.404;-1.510;2023-08-12T12:46:10;2.55;;;0.90;;
21987;SDS011;11158;53.404;-1.510;2023-08-12T12:49:13;4.78;;;1.30;;
21987;SDS011;11158;53.404;-1.510;2023-08-12T12:52:16;3.05;;;1.10;;
21987;SDS011;11158;53.404;-1.510;2023-08-12T12:55:19;4.85;;;1.13;;
21987;SDS011;11158;53.404;-1.510;2023-08-12T12:58:10;2.90;;;1.02;;
21987;SDS011;11158;53.404;-1.510;2023-08-12T13:01:13;2.15;;;0.90;;
21987;SDS011;11158;53.404;-1.510;2023-08-12T13:04:16;2.40;;;0.98;;
21987;SDS011;11158;53.404;-1.510;2023-08-12T13:07:00;3.13;;;1.27;;
21987;SDS011;11158;53.404;-1.510;2023-08-12T13:09:44;5.22;;;0.95;;
21987;SDS011;11158;53.404;-1.510;2023-08-12T13:12:29;2.70;;;1.02;;
21987;SDS011;11158;53.404;-1.510;2023-08-12T13:15:13;4.88;;;1.35;;
21987;SDS011;11158;53.404;-1.510;2023-08-12T13:17:58;4.57;;;1.42;;
21987;SDS011;11158;53.404;-1.510;2023-08-12T13:20:43;2.20;;;1.10;;
21987;SDS011;11158;53.404;-1.510;2023-08-12T13:23:27;2.75;;;1.00;;
21987;SDS011;11158;53.404;-1.510;2023-08-12T13:26:12;4.10;;;0.98;;
21987;SDS011;11158;53.404;-1.510;2023-08-12T13:29:14;3.80;;;0.95;;
21987;SDS011;11158;53.404;-1.510;2023-08-12T13:32:18;2.75;;;1.20;;
21987;SDS011;11158;53.404;-1.510;2023-08-12T13:35:21;2.42;;;1.02;;
21987;SDS011;11158;53.404;-1.510;2023-08-12T13:38:19;2.60;;;0.90;;
21987;SDS011;11158;53.404;-1.510;2023-08-12T13:41:22;3.65;;;1.00;;
21987;SDS011;11158;53.404;-1.510;2023-08-12T13:44:26;2.95;;;0.90;;
21987;SDS011;11158;53.404;-1.510;2023-08-12T13:47:13;2.40;;;0.82;;
21987;SDS011;11158;53.404;-1.510;2023-08-12T13:50:12;2.45;;;0.93;;
21987;SDS011;11158;53.404;-1.510;2023-08-12T13:52:57;2.72;;;1.10;;
21987;SDS011;11158;53.404;-1.510;2023-08-12T13:55:42;2.65;;;0.85;;
21987;SDS011;11158;53.404;-1.510;2023-08-12T13:58:26;2.40;;;0.80;;
21987;SDS011;11158;53.404;-1.510;2023-08-12T14:01:10;5.40;;;0.93;;
21987;SDS011;11158;53.404;-1.510;2023-08-12T14:03:54;1.52;;;0.70;;
21987;SDS011;11158;53.404;-1.510;2023-08-12T14:06:38;2.13;;;0.65;;
21987;SDS011;11158;53.404;-1.510;2023-08-12T14:09:24;2.13;;;0.70;;
21987;SDS011;11158;53.404;-1.510;2023-08-12T14:12:08;2.35;;;0.40;;
21987;SDS011;11158;53.404;-1.510;2023-08-12T14:14:52;5.32;;;0.60;;
21987;SDS011;11158;53.404;-1.510;2023-08-12T14:17:36;1.40;;;0.68;;
21987;SDS011;11158;53.404;-1.510;2023-08-12T14:20:20;2.80;;;0.60;;
21987;SDS011;11158;53.404;-1.510;2023-08-12T14:23:04;1.30;;;0.60;;
21987;SDS011;11158;53.404;-1.510;2023-08-12T14:25:48;1.25;;;0.60;;
21987;SDS011;11158;53.404;-1.510;2023-08-12T14:28:33;1.40;;;0.63;;
21987;SDS011;11158;53.404;-1.510;2023-08-12T14:31:16;2.17;;;0.75;;
21987;SDS011;11158;53.404;-1.510;2023-08-12T14:34:01;5.18;;;0.80;;
21987;SDS011;11158;53.404;-1.510;2023-08-12T14:36:45;1.88;;;0.60;;
21987;SDS011;11158;53.404;-1.510;2023-08-12T14:39:29;1.85;;;0.40;;
21987;SDS011;11158;53.404;-1.510;2023-08-12T14:42:14;1.25;;;0.38;;
21987;SDS011;11158;53.404;-1.510;2023-08-12T14:44:58;0.63;;;0.32;;
21987;SDS011;11158;53.404;-1.510;2023-08-12T14:47:42;2.00;;;0.50;;
21987;SDS011;11158;53.404;-1.510;2023-08-12T14:50:26;0.88;;;0.38;;
21987;SDS011;11158;53.404;-1.510;2023-08-12T14:53:10;1.80;;;0.52;;
21987;SDS011;11158;53.404;-1.510;2023-08-12T14:55:54;1.65;;;0.63;;
21987;SDS011;11158;53.404;-1.510;2023-08-12T14:58:38;2.03;;;0.63;;
21987;SDS011;11158;53.404;-1.510;2023-08-12T15:01:22;6.15;;;0.90;;
21987;SDS011;11158;53.404;-1.510;2023-08-12T15:04:08;1.50;;;0.60;;
21987;SDS011;11158;53.404;-1.510;2023-08-12T15:06:52;0.80;;;0.45;;
21987;SDS011;11158;53.404;-1.510;2023-08-12T15:09:36;1.45;;;0.50;;
21987;SDS011;11158;53.404;-1.510;2023-08-12T15:12:20;0.75;;;0.35;;
21987;SDS011;11158;53.404;-1.510;2023-08-12T15:15:05;1.42;;;0.88;;
21987;SDS011;11158;53.404;-1.510;2023-08-12T15:17:49;0.98;;;0.50;;
21987;SDS011;11158;53.404;-1.510;2023-08-12T15:20:33;0.70;;;0.40;;
21987;SDS011;11158;53.404;-1.510;2023-08-12T15:23:17;1.88;;;0.65;;
21987;SDS011;11158;53.404;-1.510;2023-08-12T15:26:01;0.73;;;0.55;;
21987;SDS011;11158;53.404;-1.510;2023-08-12T15:28:49;0.60;;;0.40;;
21987;SDS011;11158;53.404;-1.510;2023-08-12T15:31:35;1.80;;;0.60;;
21987;SDS011;11158;53.404;-1.510;2023-08-12T15:34:20;0.57;;;0.47;;
21987;SDS011;11158;53.404;-1.510;2023-08-12T15:37:04;2.75;;;0.60;;
21987;SDS011;11158;53.404;-1.510;2023-08-12T15:39:48;1.10;;;0.30;;
21987;SDS011;11158;53.404;-1.510;2023-08-12T15:42:32;0.70;;;0.30;;
21987;SDS011;11158;53.404;-1.510;2023-08-12T15:45:17;0.30;;;0.30;;
21987;SDS011;11158;53.404;-1.510;2023-08-12T15:48:01;0.90;;;0.30;;
21987;SDS011;11158;53.404;-1.510;2023-08-12T15:50:45;1.02;;;0.43;;
21987;SDS011;11158;53.404;-1.510;2023-08-12T15:53:29;0.93;;;0.40;;
21987;SDS011;11158;53.404;-1.510;2023-08-12T15:56:14;4.20;;;0.68;;
21987;SDS011;11158;53.404;-1.510;2023-08-12T15:58:58;1.30;;;0.50;;
21987;SDS011;11158;53.404;-1.510;2023-08-12T16:01:42;0.45;;;0.38;;
21987;SDS011;11158;53.404;-1.510;2023-08-12T16:04:27;0.57;;;0.40;;
21987;SDS011;11158;53.404;-1.510;2023-08-12T16:07:11;0.30;;;0.20;;
21987;SDS011;11158;53.404;-1.510;2023-08-12T16:09:55;0.45;;;0.30;;
21987;SDS011;11158;53.404;-1.510;2023-08-12T16:12:40;1.10;;;0.82;;
21987;SDS011;11158;53.404;-1.510;2023-08-12T16:15:24;1.02;;;0.40;;
21987;SDS011;11158;53.404;-1.510;2023-08-12T16:18:08;1.42;;;0.30;;
21987;SDS011;11158;53.404;-1.510;2023-08-12T16:20:52;1.85;;;0.50;;
21987;SDS011;11158;53.404;-1.510;2023-08-12T16:23:37;2.70;;;0.57;;
21987;SDS011;11158;53.404;-1.510;2023-08-12T16:26:21;2.80;;;0.98;;